createdAt,value
2023-04-11T00:05:58.603Z,11.65
2023-04-11T00:16:02.113Z,11.68
2023-04-11T00:26:06.983Z,11.55
2023-04-11T00:36:11.242Z,11.36
2023-04-11T00:46:17.278Z,11.51
2023-04-11T00:56:21.035Z,11.30
2023-04-11T01:06:26.581Z,11.39
2023-04-11T01:16:30.519Z,11.47
2023-04-11T01:26:35.642Z,11.09
2023-04-11T01:36:40.036Z,10.84
2023-04-11T01:46:45.229Z,10.82
2023-04-11T01:56:48.529Z,10.81
2023-04-11T02:06:53.144Z,10.68
2023-04-11T02:16:57.858Z,10.54
2023-04-11T02:27:04.117Z,10.53
2023-04-11T02:37:07.178Z,10.40
2023-04-11T02:47:11.766Z,10.50
2023-04-11T02:57:15.369Z,10.34
2023-04-11T03:07:20.071Z,10.26
2023-04-11T03:17:23.482Z,10.23
2023-04-11T03:27:28.351Z,10.19
2023-04-11T03:37:36.614Z,10.15
2023-04-11T03:47:41.351Z,9.94
2023-04-11T03:57:45.580Z,9.93
2023-04-11T04:07:50.819Z,9.91
2023-04-11T04:18:23.263Z,9.87
2023-04-11T04:28:28.845Z,9.90
2023-04-11T04:38:38.741Z,9.90
2023-04-11T04:48:46.755Z,9.88
2023-04-11T04:58:50.031Z,9.89
2023-04-11T05:08:57.469Z,9.58
2023-04-11T05:19:01.055Z,9.59
2023-04-11T05:29:06.711Z,9.55
2023-04-11T05:39:10.260Z,9.63
2023-04-11T05:49:15.681Z,9.55
2023-04-11T05:59:24.721Z,9.63
2023-04-11T06:09:33.374Z,9.52
2023-04-11T06:19:36.966Z,9.42
2023-04-11T06:29:44.117Z,9.89
2023-04-11T06:39:47.248Z,9.88
2023-04-11T06:49:51.919Z,9.74
2023-04-11T06:59:55.204Z,9.83
2023-04-11T07:09:59.805Z,9.99
2023-04-11T07:20:04.354Z,10.15
2023-04-11T07:30:10.215Z,10.84
2023-04-11T07:40:14.481Z,10.55
2023-04-11T07:50:18.999Z,10.92
2023-04-11T08:00:24.124Z,11.50
2023-04-11T08:10:28.608Z,11.83
2023-04-11T08:20:32.027Z,11.78
2023-04-11T08:30:36.519Z,12.77
2023-04-11T08:40:39.920Z,12.17
2023-04-11T08:50:45.464Z,12.24
2023-04-11T09:00:48.604Z,12.42
2023-04-11T09:10:53.121Z,13.01
2023-04-11T09:21:01.016Z,12.52
2023-04-11T09:31:05.801Z,12.15
2023-04-11T09:41:08.877Z,12.89
2023-04-11T09:51:18.089Z,13.32
2023-04-11T10:01:31.519Z,13.77
2023-04-11T10:11:36.726Z,13.38
2023-04-11T10:21:41.997Z,13.72
2023-04-11T10:32:09.399Z,13.99
2023-04-11T10:42:27.583Z,13.34
2023-04-11T10:52:38.937Z,13.53
2023-04-11T11:02:42.480Z,13.52
2023-04-11T11:12:56.699Z,14.74
2023-04-11T11:23:01.229Z,14.70
2023-04-11T11:33:27.666Z,13.80
2023-04-11T11:43:30.751Z,14.73
2023-04-11T11:53:35.128Z,14.69
2023-04-11T12:03:38.646Z,15.28
2023-04-11T12:13:45.597Z,15.33
2023-04-11T12:23:48.668Z,15.78
2023-04-11T12:33:53.537Z,16.01
2023-04-11T12:43:56.832Z,15.40
2023-04-11T12:54:20.001Z,14.56
2023-04-11T13:04:23.860Z,15.24
2023-04-11T13:14:28.876Z,15.90
2023-04-11T13:24:33.131Z,15.60
2023-04-11T13:34:38.124Z,15.47
2023-04-11T13:44:41.426Z,15.37
2023-04-11T13:54:46.087Z,14.80
2023-04-11T14:04:49.689Z,14.67
2023-04-11T14:14:54.059Z,14.65
2023-04-11T14:24:56.919Z,15.21
2023-04-11T14:35:02.514Z,15.08
2023-04-11T14:45:08.615Z,14.37
2023-04-11T14:55:13.346Z,14.92
2023-04-11T15:05:18.135Z,14.92
2023-04-11T15:15:23.870Z,14.96
2023-04-11T15:25:26.848Z,15.13
2023-04-11T15:35:31.153Z,14.89
2023-04-11T15:45:35.713Z,14.85
2023-04-11T15:55:41.268Z,14.70
2023-04-11T16:05:45.152Z,14.93
2023-04-11T16:15:49.799Z,14.57
2023-04-11T16:25:52.672Z,14.45
2023-04-11T16:35:57.137Z,15.08
2023-04-11T16:46:00.288Z,14.34
2023-04-11T16:56:04.860Z,14.17
2023-04-11T17:06:14.669Z,14.24
2023-04-11T17:16:19.466Z,14.30
2023-04-11T17:26:22.633Z,14.20
2023-04-11T17:36:28.559Z,14.25
2023-04-11T17:46:32.053Z,14.29
2023-04-11T17:56:36.459Z,14.09
2023-04-11T18:06:40.459Z,14.15
2023-04-11T18:16:47.302Z,14.06
2023-04-11T18:26:51.644Z,13.93
2023-04-11T18:36:56.118Z,13.88
2023-04-11T18:47:01.215Z,13.71
2023-04-11T18:57:08.000Z,13.56
2023-04-11T19:07:12.653Z,13.51
2023-04-11T19:17:16.872Z,13.64
2023-04-11T19:27:21.714Z,13.39
2023-04-11T19:37:26.458Z,13.30
2023-04-11T19:47:30.036Z,13.08
2023-04-11T19:57:35.016Z,13.03
2023-04-11T20:07:39.014Z,13.00
2023-04-11T20:17:45.923Z,12.97
2023-04-11T20:27:49.505Z,12.87
2023-04-11T20:37:54.255Z,12.88
2023-04-11T20:47:59.756Z,12.66
2023-04-11T20:58:08.499Z,12.76
2023-04-11T21:08:12.102Z,12.75
2023-04-11T21:18:16.600Z,12.58
2023-04-11T21:28:19.411Z,12.31
2023-04-11T21:38:23.722Z,12.50
2023-04-11T21:48:27.209Z,12.26
2023-04-11T21:58:31.661Z,12.34
2023-04-11T22:08:38.876Z,12.31
2023-04-11T22:18:49.939Z,12.18
2023-04-11T22:28:53.068Z,12.17
2023-04-11T22:38:57.458Z,12.06
2023-04-11T22:49:00.825Z,11.94
2023-04-11T22:59:05.281Z,12.16
2023-04-11T23:09:09.390Z,12.17
2023-04-11T23:19:13.828Z,12.13
2023-04-11T23:29:17.196Z,12.13
2023-04-11T23:39:22.924Z,12.07
2023-04-11T23:49:26.782Z,11.93
2023-04-11T23:59:31.938Z,11.76
